createdAt,value
2018-08-09T00:00:28.798Z,65.49
2018-08-09T00:02:56.469Z,65.70
2018-08-09T00:05:23.759Z,65.86
2018-08-09T00:07:51.072Z,65.78
2018-08-09T00:10:18.562Z,65.59
2018-08-09T00:12:45.844Z,65.48
2018-08-09T00:15:13.128Z,65.35
2018-08-09T00:17:40.836Z,65.41
2018-08-09T00:20:08.726Z,65.62
2018-08-09T00:22:36.000Z,65.48
2018-08-09T00:25:03.417Z,65.62
2018-08-09T00:27:30.721Z,65.94
2018-08-09T00:29:57.990Z,65.80
2018-08-09T00:32:25.321Z,66.53
2018-08-09T00:34:52.651Z,66.62
2018-08-09T00:37:19.904Z,67.14
2018-08-09T00:39:47.160Z,67.41
2018-08-09T00:42:14.428Z,67.47
2018-08-09T00:44:41.915Z,67.86
2018-08-09T00:47:09.299Z,67.99
2018-08-09T00:49:36.705Z,67.81
2018-08-09T00:52:03.992Z,67.85
2018-08-09T00:54:31.279Z,68.20
2018-08-09T00:56:58.555Z,68.23
2018-08-09T00:59:25.783Z,68.08
2018-08-09T01:01:53.091Z,68.08
2018-08-09T01:04:20.372Z,68.08
2018-08-09T01:06:48.359Z,68.02
2018-08-09T01:09:16.251Z,68.12
2018-08-09T01:11:43.909Z,68.18
2018-08-09T01:14:11.300Z,68.08
2018-08-09T01:16:38.621Z,68.35
2018-08-09T01:19:05.932Z,68.37
2018-08-09T01:21:33.228Z,68.57
2018-08-09T01:24:00.792Z,68.30
2018-08-09T01:26:28.144Z,68.38
2018-08-09T01:28:55.500Z,68.24
2018-08-09T01:31:28.930Z,68.39
2018-08-09T01:33:57.107Z,68.46
2018-08-09T01:36:24.746Z,68.59
2018-08-09T01:38:52.426Z,68.80
2018-08-09T01:41:19.673Z,68.68
2018-08-09T01:43:54.111Z,68.73
2018-08-09T01:46:21.336Z,68.93
2018-08-09T01:48:48.690Z,69.17
2018-08-09T01:51:15.928Z,69.36
2018-08-09T01:53:43.296Z,69.82
2018-08-09T01:56:10.566Z,69.84
2018-08-09T01:58:38.044Z,70.19
2018-08-09T02:01:05.434Z,69.71
2018-08-09T02:03:32.716Z,70.03
2018-08-09T02:06:00.021Z,70.28
2018-08-09T02:08:27.320Z,70.31
2018-08-09T02:10:54.595Z,70.53
2018-08-09T02:13:21.918Z,70.36
2018-08-09T02:15:49.179Z,70.96
2018-08-09T02:18:16.541Z,71.03
2018-08-09T02:20:43.869Z,71.24
2018-08-09T02:23:11.115Z,71.05
2018-08-09T02:25:38.435Z,71.74
2018-08-09T02:28:06.331Z,71.66
2018-08-09T02:30:33.567Z,71.78
2018-08-09T02:33:00.952Z,72.07
2018-08-09T02:35:28.259Z,72.17
2018-08-09T02:37:55.540Z,72.46
2018-08-09T02:40:22.869Z,72.11
2018-08-09T02:42:50.156Z,73.06
2018-08-09T02:45:17.420Z,72.64
2018-08-09T02:47:44.714Z,73.46
2018-08-09T02:50:11.988Z,73.12
2018-08-09T02:52:39.390Z,73.90
2018-08-09T02:55:06.805Z,73.86
2018-08-09T02:57:34.142Z,73.38
2018-08-09T03:00:01.440Z,73.72
2018-08-09T03:02:28.706Z,73.47
2018-08-09T03:04:56.034Z,74.34
2018-08-09T03:07:23.300Z,74.05
2018-08-09T03:09:50.605Z,74.64
2018-08-09T03:12:18.798Z,74.51
2018-08-09T03:14:46.194Z,74.40
2018-08-09T03:17:13.458Z,74.43
2018-08-09T03:19:40.742Z,74.48
2018-08-09T03:22:08.060Z,75.23
2018-08-09T03:24:35.341Z,75.17
2018-08-09T03:27:02.598Z,75.16
2018-08-09T03:29:29.881Z,74.64
2018-08-09T03:31:57.151Z,74.70
2018-08-09T03:34:24.404Z,74.55
2018-08-09T03:36:52.169Z,74.88
2018-08-09T03:39:19.416Z,74.78
2018-08-09T03:41:46.690Z,74.84
2018-08-09T03:44:13.931Z,74.18
2018-08-09T03:46:41.208Z,74.32
2018-08-09T03:49:08.498Z,74.19
2018-08-09T03:51:35.810Z,74.85
2018-08-09T03:54:03.086Z,74.78
2018-08-09T03:56:30.470Z,75.25
2018-08-09T03:58:57.815Z,74.93
2018-08-09T04:01:25.215Z,75.54
2018-08-09T04:03:52.627Z,75.51
2018-08-09T04:06:19.907Z,75.95
2018-08-09T04:08:47.177Z,75.88
2018-08-09T04:11:14.575Z,75.77
2018-08-09T04:13:42.579Z,75.86
2018-08-09T04:16:10.034Z,76.08
2018-08-09T04:18:37.444Z,75.87
2018-08-09T04:21:05.359Z,76.59
2018-08-09T04:23:32.757Z,76.73
2018-08-09T04:26:00.056Z,76.08
2018-08-09T04:28:27.330Z,76.55
2018-08-09T04:30:54.599Z,75.81
2018-08-09T04:33:21.886Z,76.78
2018-08-09T04:35:49.177Z,76.40
2018-08-09T04:38:16.478Z,76.54
2018-08-09T04:40:44.357Z,76.30
2018-08-09T04:43:11.734Z,76.99
2018-08-09T04:45:39.004Z,77.12
2018-08-09T04:48:06.339Z,76.63
2018-08-09T04:50:33.798Z,76.93
2018-08-09T04:53:01.692Z,77.01
2018-08-09T04:55:29.082Z,77.13
2018-08-09T04:57:56.434Z,77.30
2018-08-09T05:00:23.802Z,77.70
2018-08-09T05:02:51.104Z,78.09
2018-08-09T05:05:18.492Z,77.62
2018-08-09T05:07:46.324Z,77.40
2018-08-09T05:10:13.678Z,78.05
2018-08-09T05:12:41.886Z,77.17
2018-08-09T05:15:09.752Z,78.07
2018-08-09T05:17:37.026Z,77.87
2018-08-09T05:20:05.293Z,77.77
2018-08-09T05:22:32.639Z,77.06
2018-08-09T05:25:00.022Z,77.11
2018-08-09T05:27:27.308Z,76.13
2018-08-09T05:29:55.221Z,76.53
2018-08-09T05:32:23.549Z,76.66
2018-08-09T05:34:51.491Z,76.53
2018-08-09T05:37:19.947Z,76.23
2018-08-09T05:39:47.239Z,75.66
2018-08-09T05:42:14.571Z,75.75
2018-08-09T05:44:41.985Z,75.06
2018-08-09T05:47:09.363Z,75.54
2018-08-09T05:49:36.645Z,75.29
2018-08-09T05:52:03.955Z,75.13
2018-08-09T05:54:31.238Z,74.57
2018-08-09T05:56:58.628Z,74.34
2018-08-09T05:59:25.886Z,74.77
2018-08-09T06:01:53.205Z,74.07
2018-08-09T06:04:20.524Z,73.96
2018-08-09T06:06:47.912Z,73.80
2018-08-09T06:09:15.878Z,73.99
2018-08-09T06:11:43.168Z,73.55
2018-08-09T06:14:10.802Z,73.06
2018-08-09T06:16:38.354Z,72.60
2018-08-09T06:19:06.438Z,72.79
2018-08-09T06:21:33.998Z,72.93
2018-08-09T06:24:01.305Z,72.70
2018-08-09T06:26:29.004Z,73.31
2018-08-09T06:28:58.039Z,73.60
2018-08-09T06:31:25.386Z,71.27
2018-08-09T06:33:52.744Z,71.04
2018-08-09T06:36:20.076Z,70.92
2018-08-09T06:38:47.358Z,70.85
2018-08-09T06:41:15.238Z,70.21
2018-08-09T06:43:42.630Z,69.59
2018-08-09T06:46:10.532Z,67.96
2018-08-09T06:48:38.152Z,67.54
2018-08-09T06:51:06.188Z,66.79
2018-08-09T06:53:33.473Z,66.52
2018-08-09T06:56:00.790Z,66.88
2018-08-09T06:58:28.086Z,67.52
2018-08-09T07:00:55.518Z,67.79
2018-08-09T07:03:22.907Z,68.24
2018-08-09T07:05:50.192Z,68.29
2018-08-09T07:08:17.478Z,67.98
2018-08-09T07:10:44.785Z,68.35
2018-08-09T07:13:12.098Z,67.38
2018-08-09T07:15:40.024Z,67.01
2018-08-09T07:18:07.324Z,66.32
2018-08-09T07:20:34.753Z,66.09
2018-08-09T07:23:02.091Z,66.63
2018-08-09T07:25:29.523Z,66.66
2018-08-09T07:27:56.851Z,65.97
2018-08-09T07:30:24.805Z,66.23
2018-08-09T07:32:52.095Z,65.61
2018-08-09T07:35:19.427Z,64.95
2018-08-09T07:37:46.721Z,64.37
2018-08-09T07:40:14.603Z,64.43
2018-08-09T07:42:42.664Z,63.81
2018-08-09T07:45:11.353Z,63.57
2018-08-09T07:47:38.973Z,63.61
2018-08-09T07:50:07.280Z,63.04
2018-08-09T07:52:34.621Z,63.83
2018-08-09T07:55:03.166Z,63.81
2018-08-09T07:57:30.508Z,64.10
2018-08-09T07:59:57.836Z,62.92
2018-08-09T08:02:25.212Z,62.16
2018-08-09T08:04:52.584Z,62.02
2018-08-09T08:07:20.140Z,61.59
2018-08-09T08:09:47.422Z,61.56
2018-08-09T08:12:14.670Z,60.92
2018-08-09T08:14:41.954Z,60.21
2018-08-09T08:17:09.238Z,60.56
2018-08-09T08:19:36.708Z,60.43
2018-08-09T08:22:04.057Z,59.17
2018-08-09T08:24:31.458Z,58.69
2018-08-09T08:26:58.762Z,58.75
2018-08-09T08:29:26.128Z,59.13
2018-08-09T08:31:53.415Z,57.58
2018-08-09T08:34:20.729Z,58.12
2018-08-09T08:36:48.135Z,58.03
2018-08-09T08:39:15.451Z,57.60
2018-08-09T08:41:42.855Z,56.52
2018-08-09T08:44:10.111Z,55.95
2018-08-09T08:46:37.466Z,56.10
2018-08-09T08:49:05.845Z,55.93
2018-08-09T08:51:33.104Z,54.62
2018-08-09T08:54:00.434Z,55.13
2018-08-09T08:56:27.778Z,55.04
2018-08-09T08:58:55.215Z,54.93
2018-08-09T09:01:23.082Z,53.82
2018-08-09T09:03:50.664Z,54.39
2018-08-09T09:06:18.260Z,53.78
2018-08-09T09:08:45.602Z,53.03
2018-08-09T09:11:12.975Z,53.36
2018-08-09T09:13:40.309Z,53.16
2018-08-09T09:16:07.625Z,52.22
2018-08-09T09:18:35.019Z,53.01
2018-08-09T09:21:02.398Z,52.47
2018-08-09T09:23:29.758Z,53.09
2018-08-09T09:25:58.138Z,52.63
2018-08-09T09:28:25.423Z,52.42
2018-08-09T09:30:52.840Z,53.02
2018-08-09T09:33:20.126Z,52.15
2018-08-09T09:35:47.482Z,53.12
2018-08-09T09:38:14.783Z,52.33
2018-08-09T09:40:42.642Z,52.13
2018-08-09T09:43:09.924Z,50.93
2018-08-09T09:45:37.216Z,51.63
2018-08-09T09:48:04.633Z,51.34
2018-08-09T09:50:32.051Z,50.10
2018-08-09T09:52:59.481Z,51.85
2018-08-09T09:55:26.957Z,51.04
2018-08-09T09:57:54.259Z,51.02
2018-08-09T10:00:27.809Z,51.14
2018-08-09T10:02:55.273Z,50.44
2018-08-09T10:05:22.589Z,51.26
2018-08-09T10:07:49.943Z,49.59
2018-08-09T10:10:17.345Z,50.55
2018-08-09T10:12:44.718Z,49.77
2018-08-09T10:15:12.354Z,49.19
2018-08-09T10:17:39.689Z,49.79
2018-08-09T10:20:07.618Z,49.29
2018-08-09T10:22:36.095Z,49.30
2018-08-09T10:25:03.873Z,48.98
2018-08-09T10:27:31.218Z,48.14
2018-08-09T10:29:58.631Z,48.56
2018-08-09T10:32:25.837Z,48.95
2018-08-09T10:34:53.678Z,49.59
2018-08-09T10:37:20.975Z,48.68
2018-08-09T10:39:48.270Z,49.27
2018-08-09T10:42:15.575Z,49.67
2018-08-09T10:44:42.909Z,49.38
2018-08-09T10:47:10.178Z,49.87
2018-08-09T10:49:37.484Z,49.22
2018-08-09T10:52:04.783Z,48.45
2018-08-09T10:54:32.144Z,49.64
2018-08-09T10:56:59.416Z,48.86
2018-08-09T10:59:26.708Z,48.43
2018-08-09T11:01:54.019Z,48.35
2018-08-09T11:04:21.411Z,48.01
2018-08-09T11:06:48.721Z,48.24
2018-08-09T11:09:16.055Z,47.63
2018-08-09T11:11:43.516Z,47.92
2018-08-09T11:14:10.831Z,48.23
2018-08-09T11:16:38.752Z,46.47
2018-08-09T11:19:06.038Z,47.17
2018-08-09T11:21:33.301Z,47.13
2018-08-09T11:24:00.625Z,45.39
2018-08-09T11:26:27.915Z,47.62
2018-08-09T11:28:55.265Z,47.95
2018-08-09T11:31:22.513Z,47.57
2018-08-09T11:33:49.811Z,47.55
2018-08-09T11:36:17.104Z,48.31
2018-08-09T11:38:44.379Z,48.04
2018-08-09T11:41:11.663Z,47.36
2018-08-09T11:43:38.925Z,46.83
2018-08-09T11:46:06.317Z,44.91
2018-08-09T11:48:33.575Z,43.46
2018-08-09T11:51:00.843Z,44.38
2018-08-09T11:53:28.139Z,41.96
2018-08-09T11:55:56.499Z,42.10
2018-08-09T11:58:24.064Z,42.71
2018-08-09T12:00:51.344Z,43.35
2018-08-09T12:03:19.040Z,44.19
2018-08-09T12:05:46.317Z,43.72
2018-08-09T12:08:13.669Z,45.59
2018-08-09T12:10:40.974Z,45.20
2018-08-09T12:13:08.310Z,44.33
2018-08-09T12:15:35.709Z,43.33
2018-08-09T12:18:03.006Z,42.35
2018-08-09T12:20:30.344Z,41.22
2018-08-09T12:22:57.611Z,41.26
2018-08-09T12:25:25.438Z,38.88
2018-08-09T12:27:52.750Z,39.51
2018-08-09T12:30:20.160Z,40.31
2018-08-09T12:32:47.526Z,39.14
2018-08-09T12:35:14.782Z,35.96
2018-08-09T12:37:43.099Z,38.00
2018-08-09T12:40:11.229Z,37.47
2018-08-09T12:42:39.474Z,36.72
2018-08-09T12:45:08.798Z,35.65
2018-08-09T12:47:36.886Z,37.19
2018-08-09T12:50:09.364Z,37.12
2018-08-09T12:52:36.637Z,37.41
2018-08-09T12:55:04.831Z,38.89
2018-08-09T12:57:32.184Z,38.82
2018-08-09T12:59:59.485Z,39.34
2018-08-09T13:02:27.037Z,38.31
2018-08-09T13:04:54.401Z,39.98
2018-08-09T13:07:21.819Z,40.19
2018-08-09T13:09:49.111Z,41.22
2018-08-09T13:12:16.446Z,39.46
2018-08-09T13:14:43.721Z,40.77
2018-08-09T13:17:11.052Z,39.28
2018-08-09T13:19:38.391Z,39.39
2018-08-09T13:22:05.882Z,39.29
2018-08-09T13:24:33.167Z,39.02
2018-08-09T13:27:00.456Z,40.49
2018-08-09T13:29:27.754Z,40.86
2018-08-09T13:31:55.035Z,40.35
2018-08-09T13:34:22.302Z,40.72
2018-08-09T13:36:49.630Z,40.64
2018-08-09T13:39:17.664Z,41.33
2018-08-09T13:41:45.364Z,41.10
2018-08-09T13:44:13.874Z,39.44
2018-08-09T13:46:41.144Z,41.00
2018-08-09T13:49:08.483Z,41.21
2018-08-09T13:51:35.797Z,41.11
2018-08-09T13:54:03.160Z,41.24
2018-08-09T13:56:30.438Z,41.88
2018-08-09T13:58:57.819Z,39.71
2018-08-09T14:01:25.154Z,40.14
2018-08-09T14:03:53.159Z,39.29
2018-08-09T14:06:20.466Z,37.62
2018-08-09T14:08:47.766Z,37.18
2018-08-09T14:11:15.255Z,36.50
2018-08-09T14:13:43.333Z,35.49
2018-08-09T14:16:10.796Z,35.35
2018-08-09T14:18:38.536Z,34.59
2018-08-09T14:21:06.346Z,35.49
2018-08-09T14:23:33.622Z,34.11
2018-08-09T14:26:00.981Z,33.57
2018-08-09T14:28:30.136Z,33.54
2018-08-09T14:30:57.501Z,33.93
2018-08-09T14:33:24.786Z,34.28
2018-08-09T14:35:52.102Z,33.50
2018-08-09T14:38:19.417Z,33.32
2018-08-09T14:40:46.808Z,32.46
2018-08-09T14:43:14.201Z,33.50
2018-08-09T14:45:41.585Z,34.83
2018-08-09T14:48:08.896Z,32.89
2018-08-09T14:50:37.002Z,32.68
2018-08-09T14:53:04.528Z,32.52
2018-08-09T14:55:31.844Z,33.96
2018-08-09T14:57:59.166Z,33.51
2018-08-09T15:00:26.576Z,34.58
2018-08-09T15:02:54.054Z,34.84
2018-08-09T15:05:21.382Z,34.76
2018-08-09T15:07:48.767Z,34.52
2018-08-09T15:10:17.536Z,35.22
2018-08-09T15:12:44.872Z,35.92
2018-08-09T15:15:12.335Z,35.68
2018-08-09T15:17:39.596Z,35.48
2018-08-09T15:20:09.561Z,36.13
2018-08-09T15:22:37.272Z,35.88
2018-08-09T15:25:05.445Z,38.10
2018-08-09T15:27:32.808Z,38.24
2018-08-09T15:30:00.112Z,37.85
2018-08-09T15:32:27.459Z,36.56
2018-08-09T15:34:54.812Z,36.25
2018-08-09T15:37:22.147Z,37.07
2018-08-09T15:39:49.568Z,36.41
2018-08-09T15:42:16.961Z,36.70
2018-08-09T15:44:44.303Z,37.22
2018-08-09T15:47:11.653Z,36.83
2018-08-09T15:49:38.925Z,37.51
2018-08-09T15:52:06.463Z,36.40
2018-08-09T15:54:33.826Z,37.60
2018-08-09T15:57:01.165Z,37.61
2018-08-09T15:59:28.544Z,37.18
2018-08-09T16:01:55.950Z,39.00
2018-08-09T16:04:23.345Z,42.67
2018-08-09T16:06:50.766Z,44.26
2018-08-09T16:09:18.533Z,46.27
2018-08-09T16:11:46.124Z,46.84
2018-08-09T16:14:13.504Z,47.57
2018-08-09T16:16:41.010Z,47.40
2018-08-09T16:19:08.702Z,47.20
2018-08-09T16:21:36.093Z,48.31
2018-08-09T16:24:04.139Z,48.12
2018-08-09T16:26:32.595Z,49.26
2018-08-09T16:29:00.282Z,50.91
2018-08-09T16:31:27.756Z,51.34
2018-08-09T16:33:55.200Z,52.13
2018-08-09T16:36:22.631Z,53.83
2018-08-09T16:38:50.283Z,54.98
2018-08-09T16:41:17.786Z,55.73
2018-08-09T16:43:45.360Z,56.10
2018-08-09T16:46:12.766Z,57.56
2018-08-09T16:48:40.142Z,60.57
2018-08-09T16:51:07.610Z,61.94
2018-08-09T16:53:35.033Z,63.87
2018-08-09T16:56:02.402Z,64.99
2018-08-09T16:58:29.739Z,68.80
2018-08-09T17:00:57.405Z,80.63
2018-08-09T17:03:24.724Z,89.80
2018-08-09T17:14:30.821Z,100.00
